Time;durP1;ratioP1;P1;durP2;ratioP2;P2;SDS_P1;SDS_P2;PMS_P1;PMS_P2;Temp;Humidity;BMP_temperature;BMP_pressure;BME280_temperature;BME280_humidity;BME280_pressure;Samples;Min_cycle;Max_cycle;Signal;HPM_P1;HPM_P2
2024/03/05 00:01:25;;;;;;;13.38;9.98;;;24.30;59.70;;;;;;6083255;28;83043;-56
2024/03/05 00:22:08;;;;;;;13.65;10.48;;;24.30;59.70;;;;;;6081043;28;84847;-58
2024/03/05 00:25:08;;;;;;;14.77;10.38;;;24.30;59.90;;;;;;6139418;28;84600;-56
2024/03/05 00:28:09;;;;;;;13.25;10.40;;;24.20;59.60;;;;;;6127238;28;82971;-56
2024/03/05 00:31:09;;;;;;;12.98;9.80;;;24.20;59.50;;;;;;6144251;28;85846;-57
2024/03/05 00:34:10;;;;;;;12.32;10.10;;;24.30;59.70;;;;;;6155318;28;83639;-54
2024/03/05 00:37:10;;;;;;;14.88;10.25;;;24.20;59.30;;;;;;6150761;28;83087;-53
2024/03/05 00:40:11;;;;;;;13.65;10.65;;;24.30;59.50;;;;;;6127879;28;83495;-56
2024/03/05 00:43:11;;;;;;;12.45;9.70;;;24.30;59.70;;;;;;6126926;28;84084;-56
2024/03/05 00:46:12;;;;;;;13.02;9.60;;;24.20;59.60;;;;;;6143561;28;84952;-56
2024/03/05 00:49:12;;;;;;;13.65;10.40;;;24.20;59.60;;;;;;6146952;28;80437;-55
2024/03/05 00:52:13;;;;;;;11.95;9.00;;;24.20;59.40;;;;;;6135888;28;83030;-54
2024/03/05 00:55:14;;;;;;;12.85;10.50;;;24.20;59.50;;;;;;6130207;28;83370;-56
2024/03/05 00:58:14;;;;;;;12.68;9.55;;;24.20;59.70;;;;;;6135703;28;85927;-56
2024/03/05 01:01:15;;;;;;;12.23;9.85;;;24.30;59.10;;;;;;6154453;28;82664;-56
2024/03/05 01:04:16;;;;;;;13.57;10.63;;;24.20;59.60;;;;;;6154186;28;81360;-55
2024/03/05 01:07:17;;;;;;;12.35;9.43;;;24.20;59.00;;;;;;6141320;28;82768;-54
2024/03/05 01:10:17;;;;;;;11.82;8.85;;;24.20;59.30;;;;;;6137771;28;83139;-55
2024/03/05 01:13:19;;;;;;;11.00;8.95;;;24.20;59.40;;;;;;6142244;28;82240;-57
2024/03/05 01:16:20;;;;;;;12.68;9.57;;;24.20;58.90;;;;;;6153366;28;81514;-57
2024/03/05 01:19:20;;;;;;;12.68;9.52;;;24.30;58.80;;;;;;6153196;28;80923;-57
2024/03/05 01:22:21;;;;;;;12.27;10.00;;;24.30;58.70;;;;;;6153046;28;80634;-57
2024/03/05 01:25:21;;;;;;;11.85;9.15;;;24.20;58.80;;;;;;6149393;28;82960;-56
2024/03/05 01:28:22;;;;;;;11.90;9.40;;;24.20;58.70;;;;;;6135932;28;83022;-56
2024/03/05 01:31:22;;;;;;;12.18;9.57;;;24.20;58.60;;;;;;6142341;28;80294;-56
2024/03/05 01:34:23;;;;;;;11.18;8.88;;;24.20;58.50;;;;;;6144687;28;80572;-56
2024/03/05 01:37:24;;;;;;;12.20;8.88;;;24.30;58.50;;;;;;6130464;28;80770;-56
2024/03/05 01:40:24;;;;;;;11.93;9.65;;;24.30;58.30;;;;;;6130813;28;80726;-54
2024/03/05 01:43:25;;;;;;;11.50;8.80;;;24.20;58.20;;;;;;6138680;28;81134;-56
2024/03/05 01:46:26;;;;;;;11.95;8.95;;;24.30;58.20;;;;;;6139656;28;80633;-54
2024/03/05 01:49:27;;;;;;;10.95;9.02;;;24.30;58.20;;;;;;6134854;28;80984;-57
2024/03/05 01:52:28;;;;;;;12.00;8.65;;;24.30;58.00;;;;;;6128578;28;81375;-58
2024/03/05 01:55:28;;;;;;;12.35;9.15;;;24.30;58.00;;;;;;6130342;28;80367;-58
2024/03/05 01:58:29;;;;;;;11.38;8.63;;;24.30;57.70;;;;;;6152553;28;83233;-56
2024/03/05 02:01:30;;;;;;;11.23;9.10;;;24.30;57.80;;;;;;6139598;28;80754;-55
2024/03/05 02:04:31;;;;;;;11.32;8.95;;;24.30;57.80;;;;;;6152035;28;80641;-56
2024/03/05 02:07:32;;;;;;;13.23;9.30;;;24.30;57.70;;;;;;6130018;28;81836;-58
2024/03/05 02:10:32;;;;;;;12.95;10.23;;;24.20;57.80;;;;;;6150793;28;82404;-55
2024/03/05 02:13:33;;;;;;;14.23;9.70;;;24.20;57.80;;;;;;6147227;28;83304;-55
2024/03/05 02:16:33;;;;;;;11.63;9.07;;;24.30;57.60;;;;;;6130307;28;82891;-56
2024/03/05 02:19:34;;;;;;;11.57;8.52;;;24.20;57.80;;;;;;6153678;28;80590;-56
2024/03/05 02:22:35;;;;;;;12.82;9.88;;;24.20;57.50;;;;;;6152445;28;80608;-53
2024/03/05 02:25:35;;;;;;;12.05;8.98;;;24.20;57.50;;;;;;6131404;28;80781;-56
2024/03/05 02:28:38;;;;;;;13.30;9.23;;;24.20;57.60;;;;;;6135379;28;84457;-53
2024/03/05 02:31:38;;;;;;;13.55;9.93;;;24.20;57.80;;;;;;6151586;28;80399;-52
2024/03/05 02:34:39;;;;;;;11.88;9.10;;;24.20;57.30;;;;;;6153782;28;83135;-56
2024/03/05 02:37:39;;;;;;;10.93;8.70;;;24.30;57.40;;;;;;6152013;28;82668;-55
2024/03/05 02:40:40;;;;;;;15.80;10.05;;;24.20;57.20;;;;;;6153256;28;81376;-55
2024/03/05 02:43:41;;;;;;;13.27;9.57;;;24.30;57.20;;;;;;6148492;28;83832;-54
2024/03/05 02:46:41;;;;;;;11.40;8.93;;;24.30;57.00;;;;;;6152840;28;83656;-53
2024/03/05 02:49:42;;;;;;;11.15;9.20;;;24.30;56.90;;;;;;6151503;28;80917;-54
2024/03/05 02:52:42;;;;;;;11.25;8.80;;;24.30;56.80;;;;;;6139092;28;82870;-54
2024/03/05 02:55:42;;;;;;;10.48;8.63;;;24.30;56.60;;;;;;6150951;28;81724;-55
2024/03/05 02:58:43;;;;;;;11.98;8.75;;;24.30;56.60;;;;;;6151350;28;80868;-55
2024/03/05 03:01:43;;;;;;;11.50;9.20;;;24.30;56.30;;;;;;6147333;28;81253;-58
2024/03/05 03:04:44;;;;;;;13.07;9.68;;;24.30;56.40;;;;;;6157772;28;80534;-57
2024/03/05 03:07:44;;;;;;;11.85;9.35;;;24.20;56.40;;;;;;6149235;28;80907;-58
2024/03/05 03:10:45;;;;;;;12.68;9.38;;;24.30;56.40;;;;;;6145469;28;80548;-58
2024/03/05 03:13:48;;;;;;;10.98;8.98;;;24.20;56.20;;;;;;6160541;28;81437;-57
2024/03/05 03:16:49;;;;;;;10.13;8.25;;;24.30;56.20;;;;;;6160676;28;82640;-57
2024/03/05 03:19:50;;;;;;;11.70;8.20;;;24.30;56.10;;;;;;6145302;28;80592;-56
2024/03/05 03:22:51;;;;;;;13.25;9.57;;;24.20;56.00;;;;;;6158763;28;80593;-58
2024/03/05 03:25:51;;;;;;;13.43;9.55;;;24.20;56.00;;;;;;6158351;28;83157;-55
2024/03/05 03:28:54;;;;;;;10.43;8.65;;;24.30;56.00;;;;;;6159127;28;80649;-58
2024/03/05 03:31:56;;;;;;;13.75;9.82;;;24.30;56.00;;;;;;6154428;28;85741;-57
2024/03/05 03:34:56;;;;;;;9.02;7.75;;;24.20;56.00;;;;;;6170721;28;81776;-57
2024/03/05 03:37:57;;;;;;;12.13;8.60;;;24.20;55.80;;;;;;6159387;28;81141;-56
2024/03/05 03:40:57;;;;;;;12.68;9.85;;;24.30;55.80;;;;;;6159842;28;83149;-56
2024/03/05 03:43:58;;;;;;;11.15;8.88;;;24.30;55.70;;;;;;6161709;28;81055;-55
2024/03/05 03:46:58;;;;;;;10.90;8.60;;;24.30;55.70;;;;;;6142037;28;80520;-57
2024/03/05 03:49:59;;;;;;;12.38;9.40;;;24.20;55.40;;;;;;6135972;28;82071;-56
2024/03/05 03:52:59;;;;;;;12.65;9.25;;;24.30;55.50;;;;;;6155505;28;81897;-57
2024/03/05 03:56:00;;;;;;;11.45;8.75;;;24.20;55.40;;;;;;6141860;28;81608;-56
2024/03/05 03:59:00;;;;;;;11.82;9.23;;;24.20;55.30;;;;;;6139015;28;80415;-56
2024/03/05 04:02:01;;;;;;;12.80;9.48;;;24.20;55.30;;;;;;6159459;28;82401;-58
2024/03/05 04:05:04;;;;;;;15.10;10.00;;;24.20;55.40;;;;;;6154045;28;80930;-56
2024/03/05 04:08:05;;;;;;;13.15;9.13;;;24.20;55.10;;;;;;6149677;28;84816;-57
2024/03/05 04:11:06;;;;;;;13.57;9.52;;;24.30;55.50;;;;;;6138518;28;84012;-59
2024/03/05 04:14:06;;;;;;;10.98;8.80;;;24.30;55.70;;;;;;6131851;28;80360;-56
2024/03/05 04:17:07;;;;;;;13.40;9.20;;;24.30;55.20;;;;;;6148333;28;80655;-58
2024/03/05 04:20:08;;;;;;;13.48;10.13;;;24.20;55.00;;;;;;6152511;28;80791;-57
2024/03/05 04:23:10;;;;;;;13.20;10.30;;;24.20;55.70;;;;;;6128732;28;82848;-57
2024/03/05 04:26:13;;;;;;;13.93;10.27;;;24.20;55.00;;;;;;6141063;28;83653;-53
2024/03/05 04:29:19;;;;;;;13.07;9.85;;;24.10;54.90;;;;;;6143373;28;83513;-55
2024/03/05 04:32:20;;;;;;;11.63;8.52;;;24.20;54.60;;;;;;6135511;28;83300;-56
2024/03/05 04:35:21;;;;;;;14.15;9.95;;;24.20;54.50;;;;;;6151244;28;80269;-56
2024/03/05 04:38:22;;;;;;;11.60;9.02;;;24.30;54.70;;;;;;6145867;28;80894;-53
2024/03/05 04:41:22;;;;;;;13.32;8.93;;;24.30;54.30;;;;;;6131855;28;81314;-56
2024/03/05 04:44:24;;;;;;;11.05;8.63;;;24.30;54.10;;;;;;6136188;28;82812;-58
2024/03/05 04:47:26;;;;;;;11.63;8.50;;;24.40;54.10;;;;;;6140757;28;80590;-58
2024/03/05 04:50:26;;;;;;;10.40;8.13;;;24.30;54.10;;;;;;6130669;28;80512;-57
2024/03/05 04:53:27;;;;;;;12.65;8.57;;;24.40;53.90;;;;;;6134905;28;80422;-57
2024/03/05 04:56:28;;;;;;;11.23;8.35;;;24.40;53.70;;;;;;6139683;28;80481;-57
2024/03/05 04:59:28;;;;;;;11.75;8.00;;;24.40;53.60;;;;;;6137720;28;81732;-58
2024/03/05 05:02:29;;;;;;;12.93;9.30;;;24.40;53.60;;;;;;6137938;28;81060;-60
2024/03/05 05:05:31;;;;;;;10.20;7.78;;;24.40;53.40;;;;;;6149876;28;80662;-59
2024/03/05 05:08:32;;;;;;;10.60;7.57;;;24.40;53.60;;;;;;6141748;28;80109;-56
2024/03/05 05:11:32;;;;;;;11.05;8.27;;;24.50;54.10;;;;;;6132429;28;80591;-59
2024/03/05 05:14:33;;;;;;;13.32;8.15;;;24.50;54.00;;;;;;6150139;28;80702;-58
2024/03/05 05:17:34;;;;;;;11.13;7.82;;;24.60;54.30;;;;;;6142983;28;81290;-54
2024/03/05 05:20:34;;;;;;;12.77;7.78;;;24.60;54.70;;;;;;6142260;28;80764;-60
2024/03/05 05:23:35;;;;;;;13.73;8.02;;;24.60;54.60;;;;;;6132159;28;81297;-61
2024/03/05 05:26:35;;;;;;;14.20;6.97;;;24.60;54.60;;;;;;6143669;28;87502;-60
2024/03/05 05:29:36;;;;;;;10.98;7.57;;;24.60;54.60;;;;;;6151667;28;80579;-60
2024/03/05 05:32:36;;;;;;;13.05;8.07;;;24.70;54.70;;;;;;6148918;28;80975;-59
2024/03/05 05:35:37;;;;;;;19.85;8.43;;;24.60;55.10;;;;;;6151757;28;81626;-59
2024/03/05 05:38:37;;;;;;;15.55;8.07;;;24.70;54.90;;;;;;6150473;28;80208;-57
2024/03/05 05:41:38;;;;;;;16.33;7.57;;;24.70;54.60;;;;;;6137436;28;82678;-60
2024/03/05 05:44:39;;;;;;;12.38;7.47;;;24.60;54.60;;;;;;6146470;28;80741;-60
2024/03/05 05:47:48;;;;;;;15.20;7.25;;;24.70;55.40;;;;;;6140251;28;82684;-60
2024/03/05 05:50:51;;;;;;;18.10;7.97;;;24.70;54.70;;;;;;6139565;28;83921;-59
2024/03/05 05:53:52;;;;;;;16.73;7.85;;;24.60;55.00;;;;;;6140299;28;83006;-59
2024/03/05 05:56:52;;;;;;;15.65;8.10;;;24.60;55.10;;;;;;6131803;28;80175;-58
2024/03/05 06:33:44;;;;;;;13.82;7.88;;;24.40;52.70;;;;;;6115094;28;81933;-61
2024/03/05 06:36:45;;;;;;;12.15;8.07;;;24.40;52.80;;;;;;6142542;28;80778;-59
2024/03/05 06:39:46;;;;;;;11.10;7.35;;;24.40;52.70;;;;;;6145520;28;81741;-59
2024/03/05 06:43:33;;;;;;;17.00;9.18;;;24.40;52.70;;;;;;6150515;28;80263;-57
2024/03/05 06:46:09;;;;;;;16.02;8.55;;;24.30;52.80;;;;;;6132605;28;81636;-59
2024/03/05 06:49:14;;;;;;;10.02;7.53;;;24.30;52.50;;;;;;6138352;28;80839;-58
2024/03/05 06:58:53;;;;;;;10.48;7.03;;;24.30;52.40;;;;;;6140612;28;84864;-58
2024/03/05 07:01:55;;;;;;;10.80;6.72;;;24.30;52.20;;;;;;6133273;28;80546;-58
2024/03/05 07:04:56;;;;;;;9.60;6.82;;;24.30;52.20;;;;;;6144571;28;80630;-59
2024/03/05 07:07:57;;;;;;;11.55;6.72;;;24.30;52.30;;;;;;6136310;28;81739;-59
2024/03/05 07:10:57;;;;;;;11.13;6.40;;;24.30;52.30;;;;;;6133532;28;81068;-59
2024/03/05 07:13:58;;;;;;;9.18;6.32;;;24.30;52.20;;;;;;6151015;28;80892;-58
2024/03/05 07:16:58;;;;;;;9.85;6.15;;;24.30;52.10;;;;;;6151324;28;80783;-59
2024/03/05 07:19:59;;;;;;;7.57;5.68;;;24.30;52.00;;;;;;6150567;28;82014;-58
2024/03/05 07:22:59;;;;;;;11.98;6.15;;;24.20;51.90;;;;;;6151550;28;80830;-58
2024/03/05 07:26:00;;;;;;;8.50;5.45;;;24.30;51.90;;;;;;6140448;28;81710;-59
2024/03/05 07:29:01;;;;;;;8.45;6.03;;;24.30;51.90;;;;;;6139445;28;80874;-59
2024/03/05 07:32:02;;;;;;;9.38;6.10;;;24.30;52.10;;;;;;6133229;28;81380;-60
2024/03/05 07:35:03;;;;;;;5.75;4.57;;;24.30;51.90;;;;;;6127683;28;80501;-59
2024/03/05 07:38:03;;;;;;;9.05;5.85;;;24.30;52.60;;;;;;6128059;28;80383;-57
2024/03/05 07:41:04;;;;;;;10.43;5.55;;;24.20;51.90;;;;;;6131413;28;81247;-59
2024/03/05 07:44:04;;;;;;;7.35;5.07;;;24.20;52.30;;;;;;6139395;28;81103;-59
2024/03/05 07:47:05;;;;;;;8.13;5.50;;;24.30;52.10;;;;;;6127824;28;80852;-59
2024/03/05 07:50:05;;;;;;;7.68;4.68;;;24.20;52.40;;;;;;6129873;28;80812;-58
2024/03/05 07:53:06;;;;;;;8.27;5.28;;;24.20;52.10;;;;;;6129770;28;80443;-58
2024/03/05 07:56:06;;;;;;;8.30;4.95;;;24.20;51.80;;;;;;6131165;28;82258;-59
2024/03/05 07:59:07;;;;;;;9.80;5.60;;;24.20;51.70;;;;;;6131559;28;80157;-58
2024/03/05 08:02:07;;;;;;;7.40;4.78;;;24.10;51.70;;;;;;6132835;28;80365;-57
2024/03/05 08:05:08;;;;;;;8.45;5.07;;;24.20;51.60;;;;;;6143539;28;80526;-56
2024/03/05 08:08:09;;;;;;;7.35;4.85;;;24.20;51.50;;;;;;6131124;28;81666;-58
2024/03/05 08:11:11;;;;;;;7.25;4.47;;;24.20;51.50;;;;;;6138455;28;80946;-58
2024/03/05 08:14:12;;;;;;;7.20;4.75;;;24.20;51.40;;;;;;6134867;28;81336;-58
2024/03/05 08:17:12;;;;;;;6.38;4.80;;;24.20;51.30;;;;;;6136270;28;80531;-57
2024/03/05 08:20:13;;;;;;;5.43;4.05;;;24.10;51.20;;;;;;6139312;28;80948;-58
2024/03/05 08:23:13;;;;;;;7.43;4.60;;;24.20;51.30;;;;;;6144030;28;80882;-58
2024/03/05 08:26:14;;;;;;;5.38;4.45;;;24.10;51.20;;;;;;6136464;28;80538;-57
2024/03/05 08:29:15;;;;;;;7.80;4.30;;;24.20;51.20;;;;;;6130887;28;81485;-57
2024/03/05 08:32:16;;;;;;;5.97;4.63;;;24.10;51.20;;;;;;6142645;28;80731;-58
2024/03/05 08:35:16;;;;;;;7.97;4.40;;;24.10;51.20;;;;;;6129445;28;82682;-58
2024/03/05 08:38:17;;;;;;;5.35;4.13;;;24.10;51.10;;;;;;6137220;28;80860;-56
2024/03/05 08:41:17;;;;;;;5.75;4.18;;;24.10;51.10;;;;;;6130029;28;81025;-57
2024/03/05 08:44:18;;;;;;;4.60;3.80;;;24.10;51.00;;;;;;6130852;28;80501;-58
2024/03/05 08:47:19;;;;;;;5.05;3.83;;;24.10;51.10;;;;;;6130809;28;81648;-57
2024/03/05 08:50:19;;;;;;;5.00;3.63;;;24.10;51.00;;;;;;6143614;28;80645;-58
2024/03/05 08:53:20;;;;;;;4.07;3.58;;;24.10;51.00;;;;;;6130210;28;80430;-58
2024/03/05 08:56:20;;;;;;;6.57;4.10;;;24.10;51.00;;;;;;6130577;28;80587;-58
2024/03/05 08:59:21;;;;;;;9.05;4.65;;;24.10;50.90;;;;;;6142379;28;80432;-56
2024/03/05 09:02:21;;;;;;;5.95;3.92;;;24.10;50.90;;;;;;6131427;28;80939;-58
2024/03/05 09:05:22;;;;;;;6.78;4.38;;;24.10;50.80;;;;;;6150318;28;80816;-58
2024/03/05 09:08:22;;;;;;;5.88;4.03;;;24.10;50.80;;;;;;6129416;28;82940;-56
2024/03/05 09:11:23;;;;;;;5.85;3.97;;;24.10;50.80;;;;;;6138082;28;80507;-58
2024/03/05 09:14:23;;;;;;;3.70;3.22;;;24.10;50.70;;;;;;6153318;28;80295;-56
2024/03/05 09:17:24;;;;;;;4.95;3.45;;;24.10;50.60;;;;;;6150927;28;84936;-57
2024/03/05 09:20:24;;;;;;;7.60;4.10;;;24.10;50.60;;;;;;6152283;28;81766;-57
2024/03/05 09:23:25;;;;;;;5.13;3.97;;;24.10;51.20;;;;;;6152252;28;84176;-58
2024/03/05 09:26:25;;;;;;;4.75;3.60;;;24.10;50.60;;;;;;6142838;28;81667;-59
2024/03/05 09:29:26;;;;;;;4.75;4.03;;;24.10;50.50;;;;;;6149266;28;84078;-58
2024/03/05 09:32:27;;;;;;;4.78;3.47;;;24.10;50.50;;;;;;6152126;28;80656;-59
2024/03/05 09:35:28;;;;;;;5.32;3.40;;;24.10;50.60;;;;;;6145578;28;82168;-60
2024/03/05 09:38:29;;;;;;;5.60;3.45;;;24.10;50.70;;;;;;6148444;28;81632;-59
2024/03/05 09:41:30;;;;;;;4.30;3.10;;;24.10;51.20;;;;;;6154891;28;80695;-59
2024/03/05 09:44:30;;;;;;;5.75;3.95;;;24.10;51.10;;;;;;6154557;28;80559;-59
2024/03/05 09:47:31;;;;;;;8.40;3.60;;;24.10;50.90;;;;;;6153672;28;80445;-58
2024/03/05 09:50:31;;;;;;;3.83;3.08;;;24.10;50.80;;;;;;6152377;28;80643;-59
2024/03/05 09:53:32;;;;;;;6.68;3.33;;;24.20;50.80;;;;;;6153419;28;82959;-60
2024/03/05 09:56:32;;;;;;;18.92;5.00;;;24.20;50.70;;;;;;6132599;28;80463;-59
2024/03/05 09:59:33;;;;;;;5.78;2.90;;;24.20;51.00;;;;;;6131696;28;80841;-60
2024/03/05 10:02:33;;;;;;;8.68;3.95;;;24.20;50.90;;;;;;6144726;28;81247;-60
2024/03/05 10:05:34;;;;;;;4.93;3.00;;;24.20;51.40;;;;;;6151957;28;82238;-60
2024/03/05 10:08:35;;;;;;;3.80;3.05;;;24.20;50.70;;;;;;6153044;28;80605;-57
2024/03/05 10:11:36;;;;;;;4.28;3.10;;;24.20;50.60;;;;;;6140911;28;80727;-61
2024/03/05 10:14:36;;;;;;;4.50;2.92;;;24.20;50.60;;;;;;6150630;28;86314;-59
2024/03/05 10:17:37;;;;;;;12.07;3.38;;;24.30;50.60;;;;;;6150736;28;83913;-61
2024/03/05 10:20:37;;;;;;;4.20;2.88;;;24.30;50.60;;;;;;6145407;28;80398;-60
2024/03/05 10:23:38;;;;;;;4.82;3.08;;;24.30;50.60;;;;;;6146821;28;80654;-59
2024/03/05 10:26:38;;;;;;;4.32;3.20;;;24.30;50.50;;;;;;6151450;28;82888;-60
2024/03/05 10:29:39;;;;;;;3.47;2.60;;;24.30;50.90;;;;;;6149702;28;80788;-60
2024/03/05 10:32:40;;;;;;;4.30;3.42;;;24.30;50.90;;;;;;6149885;28;80652;-60
2024/03/05 10:35:41;;;;;;;3.90;2.88;;;24.30;50.70;;;;;;6147227;28;84780;-60
2024/03/05 10:38:42;;;;;;;5.25;3.22;;;24.30;50.60;;;;;;6148606;28;80727;-60
2024/03/05 10:41:42;;;;;;;3.90;2.88;;;24.30;50.90;;;;;;6148231;28;80440;-60
2024/03/05 10:44:43;;;;;;;6.70;2.80;;;24.30;50.60;;;;;;6147315;28;80357;-60
2024/03/05 10:47:44;;;;;;;4.97;3.22;;;24.30;50.60;;;;;;6147013;28;82022;-59
2024/03/05 10:50:44;;;;;;;3.58;2.72;;;24.30;50.60;;;;;;6143613;28;81847;-61
2024/03/05 10:53:45;;;;;;;3.65;2.85;;;24.30;50.90;;;;;;6150796;28;80892;-58
2024/03/05 10:56:45;;;;;;;3.83;3.15;;;24.30;51.00;;;;;;6149069;28;81131;-58
2024/03/05 10:59:52;;;;;;;3.45;2.80;;;24.30;51.00;;;;;;6154111;28;80245;-59
2024/03/05 11:02:52;;;;;;;3.70;3.08;;;24.30;50.70;;;;;;6143627;28;81442;-60
2024/03/05 11:05:53;;;;;;;5.18;2.65;;;24.30;50.40;;;;;;6140294;28;80300;-60
2024/03/05 11:08:54;;;;;;;7.25;3.17;;;24.30;50.90;;;;;;6147833;28;81311;-58
2024/03/05 11:11:56;;;;;;;3.47;2.78;;;24.20;51.10;;;;;;6140919;28;80520;-59
2024/03/05 11:14:57;;;;;;;3.63;2.70;;;24.30;51.40;;;;;;6150966;28;80293;-59
2024/03/05 11:17:57;;;;;;;4.05;2.80;;;24.30;51.30;;;;;;6141675;28;81169;-59
2024/03/05 11:20:58;;;;;;;4.47;3.13;;;24.20;50.90;;;;;;6139594;28;80291;-59
2024/03/05 11:24:00;;;;;;;3.83;2.88;;;24.20;51.00;;;;;;6131012;28;81486;-59
2024/03/05 11:27:01;;;;;;;3.88;3.13;;;24.20;50.70;;;;;;6143170;28;81117;-58
2024/03/05 11:30:02;;;;;;;5.10;3.05;;;24.20;50.60;;;;;;6151651;28;80259;-57
2024/03/05 11:33:02;;;;;;;3.47;2.83;;;24.30;50.80;;;;;;6137343;28;80482;-56
2024/03/05 11:36:03;;;;;;;5.15;3.60;;;24.20;50.80;;;;;;6143722;28;82150;-57
2024/03/05 11:39:04;;;;;;;6.22;3.90;;;24.30;52.00;;;;;;6131983;28;81794;-56
2024/03/05 11:42:05;;;;;;;5.93;4.15;;;24.20;52.10;;;;;;6147764;28;83198;-57
2024/03/05 11:45:05;;;;;;;7.03;4.90;;;24.20;52.60;;;;;;6151494;28;81584;-57
2024/03/05 11:48:06;;;;;;;7.32;4.68;;;24.10;51.60;;;;;;6153779;28;81596;-58
2024/03/05 11:51:06;;;;;;;8.95;5.40;;;24.10;51.10;;;;;;6152740;28;83214;-58
2024/03/05 11:54:08;;;;;;;8.10;5.20;;;24.10;51.80;;;;;;6153272;28;80695;-58
2024/03/05 11:57:11;;;;;;;6.47;4.85;;;24.10;49.60;;;;;;6153033;28;80822;-58
2024/03/05 12:00:11;;;;;;;9.52;5.38;;;24.10;49.80;;;;;;6152338;28;80339;-58
2024/03/05 12:03:13;;;;;;;8.23;5.22;;;24.10;49.80;;;;;;6153965;28;81446;-58
2024/03/05 12:06:13;;;;;;;19.58;5.70;;;24.10;50.00;;;;;;6153881;28;80490;-58
2024/03/05 12:09:18;;;;;;;7.43;5.45;;;24.10;49.90;;;;;;6147008;28;82207;-57
2024/03/05 12:12:22;;;;;;;8.50;5.40;;;24.10;49.70;;;;;;6154100;28;81180;-58
2024/03/05 12:15:23;;;;;;;7.25;5.53;;;24.10;49.80;;;;;;6147275;28;81123;-57
2024/03/05 12:18:24;;;;;;;7.15;4.60;;;24.10;49.90;;;;;;6135843;28;80628;-58
2024/03/05 12:21:25;;;;;;;9.48;5.38;;;24.10;49.90;;;;;;6145169;28;80442;-58
2024/03/05 12:24:25;;;;;;;10.55;6.75;;;24.10;49.90;;;;;;6146173;28;81170;-58
2024/03/05 12:27:26;;;;;;;11.10;6.28;;;24.10;49.90;;;;;;6148658;28;80856;-57
2024/03/05 12:30:26;;;;;;;10.27;5.97;;;24.10;49.90;;;;;;6135072;28;80560;-58
2024/03/05 12:33:30;;;;;;;7.82;6.00;;;24.10;49.90;;;;;;6149938;28;80534;-59
2024/03/05 12:36:30;;;;;;;7.88;5.68;;;24.10;49.90;;;;;;6133051;28;80261;-58
2024/03/05 12:39:31;;;;;;;8.88;6.78;;;24.10;50.00;;;;;;6133051;28;81554;-59
2024/03/05 12:42:31;;;;;;;7.60;5.90;;;24.10;50.00;;;;;;6132413;28;80962;-58
2024/03/05 12:45:33;;;;;;;9.88;6.93;;;24.10;50.00;;;;;;6133315;28;80723;-58
2024/03/05 12:48:34;;;;;;;10.15;7.32;;;24.10;50.00;;;;;;6132385;28;80885;-59
2024/03/05 12:51:35;;;;;;;10.07;6.55;;;24.10;50.00;;;;;;6144784;28;80546;-58
2024/03/05 12:54:36;;;;;;;11.55;7.53;;;24.10;49.90;;;;;;6136000;28;82938;-63
2024/03/05 12:57:37;;;;;;;10.27;6.88;;;24.10;49.90;;;;;;6138443;28;80708;-59
2024/03/05 13:00:38;;;;;;;11.18;7.03;;;24.10;49.90;;;;;;6133812;28;81791;-59
2024/03/05 13:03:38;;;;;;;10.98;7.40;;;24.20;49.90;;;;;;6141981;28;80781;-60
2024/03/05 13:06:39;;;;;;;9.93;6.72;;;24.20;49.90;;;;;;6136493;28;80822;-59
2024/03/05 13:09:39;;;;;;;10.90;6.55;;;24.20;50.20;;;;;;6136745;28;81108;-58
2024/03/05 13:12:42;;;;;;;8.98;6.50;;;24.10;50.20;;;;;;6148744;28;80577;-59
2024/03/05 13:15:42;;;;;;;11.10;6.90;;;24.20;50.40;;;;;;6152068;28;86718;-59
2024/03/05 13:18:43;;;;;;;10.82;7.43;;;24.20;50.80;;;;;;6152535;28;80375;-59
2024/03/05 13:21:43;;;;;;;9.73;6.60;;;24.20;50.70;;;;;;6153505;28;81598;-58
2024/03/05 13:24:44;;;;;;;10.70;7.35;;;24.10;50.60;;;;;;6154107;28;80690;-58
2024/03/05 13:27:44;;;;;;;14.15;7.28;;;24.20;50.60;;;;;;6138049;28;81305;-57
2024/03/05 13:30:45;;;;;;;11.63;6.57;;;24.20;50.60;;;;;;6152811;28;80518;-61
2024/03/05 13:33:45;;;;;;;13.60;8.15;;;24.20;50.40;;;;;;6152236;28;80069;-58
2024/03/05 13:36:46;;;;;;;10.95;6.90;;;24.20;50.40;;;;;;6152299;28;80659;-58
2024/03/05 13:39:47;;;;;;;13.20;7.60;;;24.20;50.30;;;;;;6135908;28;80364;-59
2024/03/05 13:42:47;;;;;;;11.13;7.70;;;24.10;50.30;;;;;;6129977;28;81208;-60
2024/03/05 13:45:48;;;;;;;11.10;7.80;;;24.10;50.30;;;;;;6150402;28;81065;-60
2024/03/05 13:48:49;;;;;;;12.73;8.20;;;24.10;50.20;;;;;;6131390;28;81148;-60
2024/03/05 13:51:49;;;;;;;12.07;7.85;;;24.10;50.20;;;;;;6149309;28;80890;-59
2024/03/05 13:54:50;;;;;;;11.23;7.82;;;24.10;50.20;;;;;;6142894;28;81525;-59
2024/03/05 13:57:51;;;;;;;11.60;7.13;;;24.10;50.20;;;;;;6158150;28;80692;-59
2024/03/05 14:00:52;;;;;;;12.77;7.60;;;24.10;50.20;;;;;;6147379;28;80913;-60
2024/03/05 14:03:54;;;;;;;13.45;8.82;;;24.20;50.20;;;;;;6148372;28;81483;-59
2024/03/05 14:06:54;;;;;;;11.07;8.13;;;24.20;50.10;;;;;;6137493;28;84395;-59
2024/03/05 14:09:56;;;;;;;12.73;8.57;;;24.10;50.00;;;;;;6135563;28;80400;-60
2024/03/05 14:12:56;;;;;;;11.80;8.25;;;24.10;50.00;;;;;;6149944;28;81985;-59
2024/03/05 14:15:57;;;;;;;11.65;8.50;;;24.20;50.00;;;;;;6143472;28;80947;-60
2024/03/05 14:18:58;;;;;;;11.57;8.27;;;24.10;49.90;;;;;;6140556;28;80325;-59
2024/03/05 14:22:00;;;;;;;13.98;9.07;;;24.10;49.90;;;;;;6151814;28;80538;-59
2024/03/05 14:25:00;;;;;;;12.32;8.43;;;24.10;49.80;;;;;;6151354;28;80431;-59
2024/03/05 14:28:01;;;;;;;12.00;8.10;;;24.10;49.80;;;;;;6149661;28;80546;-59
2024/03/05 14:31:04;;;;;;;13.75;8.65;;;24.10;49.70;;;;;;6147719;28;81403;-59
2024/03/05 14:34:05;;;;;;;12.63;8.75;;;24.10;49.70;;;;;;6142835;28;83179;-59
2024/03/05 14:37:06;;;;;;;11.27;8.07;;;24.10;49.60;;;;;;6136133;28;80358;-59
2024/03/05 14:40:10;;;;;;;11.48;7.95;;;24.10;49.80;;;;;;6136182;28;80535;-58
2024/03/05 14:43:10;;;;;;;14.70;9.88;;;24.10;49.80;;;;;;6136311;28;80663;-58
2024/03/05 14:46:11;;;;;;;12.15;8.63;;;24.10;49.70;;;;;;6135333;28;80837;-58
2024/03/05 14:49:11;;;;;;;12.35;8.75;;;24.10;49.90;;;;;;6133973;28;80988;-57
2024/03/05 14:52:12;;;;;;;11.35;7.95;;;24.10;49.80;;;;;;6132939;28;80453;-59
2024/03/05 14:55:13;;;;;;;13.55;9.32;;;24.10;49.80;;;;;;6143239;28;80643;-55
2024/03/05 14:58:13;;;;;;;16.65;9.18;;;24.10;49.90;;;;;;6136234;28;80442;-59
2024/03/05 15:01:14;;;;;;;19.00;9.40;;;24.10;50.30;;;;;;6157591;28;81358;-59
2024/03/05 15:04:14;;;;;;;26.73;9.48;;;24.10;50.60;;;;;;6139934;28;80629;-59
2024/03/05 15:07:15;;;;;;;23.58;9.25;;;24.10;50.40;;;;;;6151992;28;82726;-60
2024/03/05 15:10:17;;;;;;;17.27;8.93;;;24.10;50.50;;;;;;6136986;28;80342;-60
2024/03/05 15:13:17;;;;;;;14.43;9.35;;;24.20;51.00;;;;;;6150474;28;86868;-59
2024/03/05 15:16:18;;;;;;;18.58;8.57;;;24.20;51.20;;;;;;6150797;28;80273;-58
2024/03/05 15:19:18;;;;;;;20.55;9.25;;;24.20;51.20;;;;;;6144272;28;80806;-59
2024/03/05 15:22:19;;;;;;;15.68;8.63;;;24.20;51.20;;;;;;6144150;28;83503;-59
2024/03/05 15:25:20;;;;;;;15.98;8.60;;;24.20;51.80;;;;;;6149915;28;81645;-59
2024/03/05 15:28:20;;;;;;;13.48;9.27;;;24.20;51.60;;;;;;6136016;28;80775;-59
2024/03/05 15:31:21;;;;;;;15.13;8.95;;;24.20;51.40;;;;;;6152668;28;83627;-59
2024/03/05 15:34:21;;;;;;;15.27;8.32;;;24.20;51.50;;;;;;6144996;28;80524;-58
2024/03/05 15:37:22;;;;;;;16.42;9.43;;;24.30;51.50;;;;;;6145653;28;80626;-55
2024/03/05 15:40:22;;;;;;;16.23;8.60;;;24.30;51.50;;;;;;6147908;28;80371;-54
2024/03/05 15:43:23;;;;;;;19.70;9.35;;;24.30;51.50;;;;;;6149738;28;81219;-56
2024/03/05 15:46:24;;;;;;;22.33;9.30;;;24.20;51.20;;;;;;6149243;28;81332;-56
2024/03/05 15:49:25;;;;;;;13.77;8.77;;;24.30;51.40;;;;;;6141730;28;81038;-58
2024/03/05 15:52:25;;;;;;;17.95;9.75;;;24.30;51.10;;;;;;6142205;28;84165;-55
2024/03/05 15:55:27;;;;;;;14.88;9.13;;;24.30;51.10;;;;;;6146331;28;80715;-58
2024/03/05 16:01:44;;;;;;;14.77;9.82;;;24.30;51.20;;;;;;6144861;28;83897;-56
2024/03/05 16:04:44;;;;;;;15.80;10.25;;;24.40;51.30;;;;;;6147715;28;83338;-56
2024/03/05 16:07:45;;;;;;;18.02;9.95;;;24.40;51.30;;;;;;6147042;28;83682;-55
2024/03/05 16:10:45;;;;;;;17.80;9.68;;;24.30;51.20;;;;;;6133998;28;82949;-53
2024/03/05 16:13:46;;;;;;;15.70;9.95;;;24.30;50.90;;;;;;6155171;28;80630;-55
2024/03/05 16:16:46;;;;;;;17.98;10.73;;;24.40;51.10;;;;;;6154684;28;83318;-57
2024/03/05 16:19:47;;;;;;;15.75;9.73;;;24.30;51.20;;;;;;6150632;28;83182;-57
2024/03/05 16:22:47;;;;;;;16.60;10.80;;;24.40;51.10;;;;;;6153236;28;81993;-58
2024/03/05 16:25:51;;;;;;;16.73;10.60;;;24.40;51.00;;;;;;6150712;28;83206;-57
2024/03/05 16:28:51;;;;;;;16.15;10.00;;;24.40;51.10;;;;;;6149033;28;83614;-59
2024/03/05 16:31:53;;;;;;;18.08;10.43;;;24.40;51.00;;;;;;6149223;28;83393;-57
2024/03/05 16:34:53;;;;;;;20.85;10.90;;;24.40;51.00;;;;;;6149665;28;88700;-59